Time;durP1;ratioP1;P1;durP2;ratioP2;P2;SDS_P1;SDS_P2;PMS_P1;PMS_P2;Temp;Humidity;BMP_temperature;BMP_pressure;BME280_temperature;BME280_humidity;BME280_pressure;Samples;Min_cycle;Max_cycle;Signal;HPM_P1;HPM_P2
2023/01/18 00:01:12;;;;;;;7.40;3.67;;;0.00;99.90;;;;;;4875886;29;20036;-83
2023/01/18 00:03:38;;;;;;;6.07;3.22;;;1.60;99.90;;;;;;4887596;29;20454;-83
2023/01/18 00:06:09;;;;;;;4.68;3.10;;;-0.10;99.90;;;;;;4870252;29;20413;-83
2023/01/18 00:08:37;;;;;;;5.50;3.08;;;0.00;99.90;;;;;;4859716;29;20119;-83
2023/01/18 00:11:04;;;;;;;9.18;3.53;;;1.00;99.90;;;;;;4873250;29;20048;-83
2023/01/18 00:13:30;;;;;;;6.40;3.30;;;0.00;99.90;;;;;;4890110;29;20131;-84
2023/01/18 00:16:09;;;;;;;5.35;3.15;;;0.50;99.90;;;;;;4872500;29;20446;-83
2023/01/18 00:18:34;;;;;;;5.45;3.08;;;0.00;99.90;;;;;;4877397;29;20560;-83
2023/01/18 00:21:05;;;;;;;4.80;2.65;;;0.00;99.90;;;;;;4876180;29;20126;-83
2023/01/18 00:23:31;;;;;;;6.47;3.00;;;0.00;99.90;;;;;;4873886;29;20036;-83
2023/01/18 00:26:05;;;;;;;8.70;3.60;;;1.50;99.90;;;;;;4865535;29;20044;-83
2023/01/18 00:28:31;;;;;;;6.60;3.30;;;-0.10;99.90;;;;;;4891119;29;20068;-83
2023/01/18 00:30:56;;;;;;;5.32;3.05;;;1.60;99.90;;;;;;4874676;29;20084;-83
2023/01/18 00:33:22;;;;;;;5.20;2.95;;;-0.10;99.90;;;;;;4894430;29;20036;-83
2023/01/18 00:36:00;;;;;;;4.43;3.05;;;0.00;99.90;;;;;;4862544;29;20063;-83
2023/01/18 00:38:26;;;;;;;5.18;3.00;;;-0.20;99.90;;;;;;4892079;29;20146;-83
2023/01/18 00:40:52;;;;;;;5.25;2.95;;;0.00;99.90;;;;;;4850456;29;20497;-83
2023/01/18 00:46:02;;;;;;;4.88;2.42;;;0.00;99.90;;;;;;4875571;29;20409;-83
2023/01/18 00:48:28;;;;;;;9.00;3.00;;;0.00;99.90;;;;;;4863287;29;20036;-83
2023/01/18 00:50:54;;;;;;;5.33;2.73;;;-0.10;99.90;;;;;;4842972;29;20048;-83
2023/01/18 00:53:19;;;;;;;7.45;3.65;;;-0.10;99.90;;;;;;4868716;29;20041;-83
2023/01/18 00:55:46;;;;;;;7.28;2.78;;;0.80;99.90;;;;;;4868310;29;20079;-83
2023/01/18 00:58:12;;;;;;;9.68;3.30;;;1.80;99.90;;;;;;4857360;29;20045;-83
2023/01/18 01:00:37;;;;;;;7.65;3.35;;;0.10;99.90;;;;;;4876471;29;20040;-83
2023/01/18 01:03:03;;;;;;;4.32;2.78;;;2.20;99.90;;;;;;4855120;29;20188;-83
2023/01/18 01:08:18;;;;;;;5.80;3.15;;;-0.10;99.90;;;;;;4885723;29;20131;-83
2023/01/18 01:10:46;;;;;;;6.40;3.30;;;-0.10;99.90;;;;;;4861630;29;20127;-83
2023/01/18 01:26:55;;;;;;;5.47;3.15;;;-0.30;99.90;;;;;;4890832;29;20056;-83
2023/01/18 01:29:21;;;;;;;5.97;3.55;;;-0.30;99.90;;;;;;4856930;29;20143;-83
2023/01/18 01:31:46;;;;;;;5.85;3.78;;;0.50;99.90;;;;;;4887357;29;20068;-83
2023/01/18 01:34:13;;;;;;;7.13;4.23;;;1.70;99.90;;;;;;4860936;29;20762;-83
2023/01/18 01:36:38;;;;;;;6.47;3.50;;;-0.40;99.90;;;;;;4873407;29;20083;-83
2023/01/18 01:39:05;;;;;;;5.70;3.72;;;-0.40;99.90;;;;;;4870141;29;20513;-83
2023/01/18 01:41:33;;;;;;;6.95;3.72;;;-0.50;99.90;;;;;;4887567;29;20130;-83
2023/01/18 01:44:23;;;;;;;6.78;3.75;;;0.10;99.90;;;;;;4883747;29;20047;-83
2023/01/18 01:46:52;;;;;;;10.20;3.80;;;-0.50;99.90;;;;;;4875196;29;20517;-83
2023/01/18 01:49:38;;;;;;;7.50;3.72;;;-0.50;99.90;;;;;;4887494;29;20119;-83
2023/01/18 01:52:12;;;;;;;6.15;3.40;;;-0.50;99.90;;;;;;4894060;29;20130;-83
2023/01/18 01:54:56;;;;;;;6.90;3.42;;;-0.50;99.90;;;;;;4888557;29;20140;-82
2023/01/18 01:57:39;;;;;;;5.25;2.90;;;-0.50;99.90;;;;;;4875327;29;20082;-83
2023/01/18 02:00:15;;;;;;;4.70;3.10;;;-0.40;99.90;;;;;;4869974;29;20048;-83
2023/01/18 02:02:43;;;;;;;7.90;2.90;;;-0.30;99.90;;;;;;4871795;29;20445;-83
2023/01/18 02:05:12;;;;;;;6.07;3.55;;;0.90;99.90;;;;;;4875864;29;20467;-83
2023/01/18 02:07:38;;;;;;;7.88;4.13;;;-0.30;99.90;;;;;;4874165;29;20121;-83
2023/01/18 02:10:05;;;;;;;7.22;4.13;;;-0.40;99.90;;;;;;4889313;29;20477;-83
2023/01/18 02:12:33;;;;;;;7.72;3.65;;;-0.40;99.90;;;;;;4871832;29;20042;-83
2023/01/18 02:14:59;;;;;;;9.10;3.47;;;1.10;99.90;;;;;;4873874;29;20768;-83
2023/01/18 02:17:43;;;;;;;9.77;3.67;;;-0.40;99.90;;;;;;4876648;29;20110;-83
2023/01/18 02:20:18;;;;;;;7.57;3.28;;;-0.40;99.90;;;;;;4888032;29;20103;-82
2023/01/18 02:22:46;;;;;;;7.13;3.72;;;-0.40;99.90;;;;;;4891058;29;20051;-82
2023/01/18 02:25:37;;;;;;;6.13;3.60;;;-0.40;99.90;;;;;;4894541;29;20036;-82
2023/01/18 02:28:22;;;;;;;6.80;3.97;;;-0.30;99.90;;;;;;4870049;29;20097;-82
2023/01/18 02:31:00;;;;;;;8.57;4.40;;;-0.30;99.90;;;;;;4891352;29;20127;-82
2023/01/18 02:33:57;;;;;;;5.22;3.58;;;0.50;99.90;;;;;;4886465;29;20581;-82
2023/01/18 02:36:42;;;;;;;6.30;4.13;;;-0.30;99.90;;;;;;4886460;29;20036;-82
2023/01/18 02:39:43;;;;;;;6.10;4.43;;;-0.30;99.90;;;;;;4888860;29;20040;-82
2023/01/18 02:48:21;;;;;;;6.43;4.15;;;-0.40;99.90;;;;;;4888942;29;20099;-82
2023/01/18 02:50:47;;;;;;;9.23;4.30;;;-0.40;99.90;;;;;;4895809;29;20119;-82
2023/01/18 02:53:13;;;;;;;9.10;4.40;;;-0.40;99.90;;;;;;4891376;29;20196;-82
2023/01/18 02:55:57;;;;;;;6.45;4.53;;;-0.30;99.90;;;;;;4893425;29;20043;-82
2023/01/18 02:58:25;;;;;;;5.15;3.63;;;-0.40;99.90;;;;;;4889300;29;20413;-82
2023/01/18 03:01:09;;;;;;;8.95;4.90;;;-0.40;99.90;;;;;;4889487;29;20055;-82
2023/01/18 03:03:36;;;;;;;6.43;4.03;;;-0.40;99.90;;;;;;4878117;29;20048;-82
2023/01/18 03:06:05;;;;;;;8.75;4.68;;;-0.50;99.90;;;;;;4877292;29;20055;-83
2023/01/18 03:08:43;;;;;;;6.88;4.80;;;0.50;99.90;;;;;;4878563;29;20059;-82
2023/01/18 03:11:32;;;;;;;6.85;3.92;;;-0.30;99.90;;;;;;4889736;29;20076;-82
2023/01/18 03:14:30;;;;;;;11.07;5.25;;;-0.60;99.90;;;;;;4889372;29;20044;-82
2023/01/18 03:16:59;;;;;;;;;;;-0.60;99.90;;;;;;4872558;29;20405;-82
2023/01/18 03:25:48;;;;;;;7.95;4.53;;;-0.70;99.90;;;;;;4891132;29;20048;-82
2023/01/18 03:34:40;;;;;;;7.57;4.35;;;-0.80;99.90;;;;;;4884220;29;20115;-82
2023/01/18 03:37:18;;;;;;;20.50;6.32;;;-0.70;99.90;;;;;;4891269;29;20519;-82
2023/01/18 03:39:57;;;;;;;11.02;6.18;;;-0.80;99.90;;;;;;4891633;29;20040;-82
2023/01/18 03:42:32;;;;;;;9.55;5.78;;;0.30;99.90;;;;;;4888120;29;20056;-82
2023/01/18 03:45:05;;;;;;;8.50;5.10;;;-0.80;99.90;;;;;;4877353;29;20051;-82
2023/01/18 03:47:31;;;;;;;10.70;7.07;;;-0.80;99.90;;;;;;4891072;29;20037;-82
2023/01/18 03:49:57;;;;;;;12.05;6.50;;;-0.70;99.90;;;;;;4895672;29;20060;-82
2023/01/18 03:52:28;;;;;;;10.75;6.45;;;-0.90;99.90;;;;;;4873214;29;20044;-82
2023/01/18 03:55:18;;;;;;;10.82;6.60;;;-0.90;99.90;;;;;;4889593;29;20040;-82
2023/01/18 03:57:49;;;;;;;13.13;7.20;;;-0.90;99.90;;;;;;4894795;29;20123;-82
2023/01/18 04:00:16;;;;;;;12.02;6.18;;;0.30;99.90;;;;;;4888961;29;20438;-82
2023/01/18 04:02:47;;;;;;;11.02;6.72;;;-1.00;99.90;;;;;;4890669;29;20523;-82
2023/01/18 04:05:14;;;;;;;11.10;6.35;;;-1.00;99.90;;;;;;4887847;29;20047;-82
2023/01/18 04:07:40;;;;;;;9.63;6.60;;;-1.00;99.90;;;;;;4889188;29;20040;-82
2023/01/18 04:10:07;;;;;;;11.15;7.47;;;-1.00;99.90;;;;;;4873440;29;20088;-82
2023/01/18 04:12:33;;;;;;;;;;;-1.10;99.90;;;;;;4870198;29;20076;-82
2023/01/18 04:14:59;;;;;;;10.47;6.73;;;-0.60;99.90;;;;;;4893906;29;19974;-82
2023/01/18 04:17:26;;;;;;;8.90;6.07;;;-1.10;99.90;;;;;;4888092;29;20845;-82
2023/01/18 04:19:51;;;;;;;13.60;6.55;;;-1.10;99.90;;;;;;4876499;29;20123;-81
2023/01/18 04:22:17;;;;;;;9.48;5.93;;;-0.90;99.90;;;;;;4877600;29;20470;-81
2023/01/18 04:24:43;;;;;;;11.38;5.68;;;-1.00;99.90;;;;;;4892061;29;20051;-82
2023/01/18 04:27:09;;;;;;;12.63;7.70;;;0.50;99.90;;;;;;4875250;29;20067;-81
2023/01/18 04:29:34;;;;;;;12.40;7.03;;;-1.00;99.90;;;;;;4857738;29;20063;-82
2023/01/18 04:32:00;;;;;;;7.65;5.07;;;-1.10;99.90;;;;;;4863063;29;20412;-82
2023/01/18 04:34:26;;;;;;;10.48;6.15;;;0.60;99.90;;;;;;4890158;29;20044;-82
2023/01/18 04:36:52;;;;;;;11.30;6.53;;;0.70;99.90;;;;;;4892146;29;20103;-81
2023/01/18 04:39:18;;;;;;;13.45;7.47;;;-1.10;99.90;;;;;;4871433;29;20367;-81
2023/01/18 04:41:44;;;;;;;12.60;6.85;;;-1.00;99.90;;;;;;4890870;29;20076;-81
2023/01/18 04:44:10;;;;;;;9.43;5.85;;;-1.10;99.90;;;;;;4892489;29;20084;-82
2023/01/18 04:46:37;;;;;;;11.45;6.75;;;-1.10;99.90;;;;;;4868608;29;20043;-81
2023/01/18 04:49:04;;;;;;;12.95;6.65;;;-1.10;99.90;;;;;;4889931;29;20115;-81
2023/01/18 04:51:30;;;;;;;38.03;7.50;;;-0.60;99.90;;;;;;4868378;29;20126;-81
2023/01/18 04:53:58;;;;;;;14.48;7.18;;;-1.10;99.90;;;;;;4889605;29;20513;-81
2023/01/18 04:56:23;;;;;;;13.30;6.53;;;-1.00;99.90;;;;;;4880553;29;20095;-81
2023/01/18 04:58:53;;;;;;;12.27;6.20;;;0.10;99.90;;;;;;4876002;29;20524;-81
2023/01/18 05:01:19;;;;;;;13.52;6.72;;;-1.00;99.90;;;;;;4885880;29;20490;-81
2023/01/18 05:03:45;;;;;;;9.65;6.20;;;-1.00;99.90;;;;;;4888548;29;20036;-80
2023/01/18 05:06:13;;;;;;;9.95;5.90;;;-0.90;99.90;;;;;;4889548;29;20436;-80
2023/01/18 05:08:39;;;;;;;7.78;5.32;;;-0.50;99.90;;;;;;4891612;29;20044;-80
2023/01/18 05:11:16;;;;;;;11.02;6.68;;;1.00;99.90;;;;;;4891393;29;20044;-80
2023/01/18 05:13:43;;;;;;;8.40;5.10;;;-0.90;99.90;;;;;;4889430;29;20095;-81
2023/01/18 05:16:14;;;;;;;11.57;7.10;;;-0.80;99.90;;;;;;4873779;29;20127;-81
2023/01/18 05:18:41;;;;;;;12.10;6.30;;;-0.80;99.90;;;;;;4886591;29;20096;-81
2023/01/18 05:21:06;;;;;;;14.23;7.20;;;1.20;99.90;;;;;;4885052;29;20083;-81
2023/01/18 05:23:32;;;;;;;10.73;6.22;;;-0.90;99.90;;;;;;4840143;29;20072;-81
2023/01/18 05:25:58;;;;;;;10.93;5.40;;;-0.50;99.90;;;;;;4893283;29;20465;-80
2023/01/18 05:28:26;;;;;;;13.00;7.38;;;-0.90;99.90;;;;;;4887465;29;20044;-81
2023/01/18 05:30:53;;;;;;;12.93;7.80;;;-1.30;99.90;;;;;;4873657;29;20040;-82
2023/01/18 05:33:20;;;;;;;12.60;7.82;;;-0.90;99.90;;;;;;4889092;29;20041;-79
2023/01/18 05:35:51;;;;;;;11.60;7.05;;;-0.90;99.90;;;;;;4856619;29;20040;-81
2023/01/18 05:38:18;;;;;;;13.93;7.45;;;-1.00;99.90;;;;;;4873810;29;20067;-82
2023/01/18 05:40:44;;;;;;;13.38;6.95;;;-0.90;99.90;;;;;;4876598;29;20063;-81
2023/01/18 05:43:10;;;;;;;;;;;-1.00;99.90;;;;;;4861824;29;20044;-80
2023/01/18 05:45:36;;;;;;;12.40;6.93;;;-0.90;99.90;;;;;;4871695;29;20273;-80
2023/01/18 05:48:02;;;;;;;11.45;6.95;;;-0.90;99.90;;;;;;4887206;29;20052;-80
2023/01/18 05:50:28;;;;;;;15.60;7.97;;;-0.90;99.90;;;;;;4876081;29;20494;-80
2023/01/18 05:52:57;;;;;;;12.10;7.30;;;-0.90;99.90;;;;;;4894706;29;20094;-80
2023/01/18 05:55:23;;;;;;;12.20;7.47;;;-0.90;99.90;;;;;;4878169;29;20088;-80
2023/01/18 05:57:49;;;;;;;;;;;-0.90;99.90;;;;;;4869026;29;20081;-80
2023/01/18 06:00:15;;;;;;;13.43;7.53;;;-0.10;99.90;;;;;;4876542;29;19970;-80
2023/01/18 06:02:41;;;;;;;12.57;7.15;;;-0.90;99.90;;;;;;4871417;29;20060;-80
2023/01/18 06:05:07;;;;;;;13.63;7.72;;;-0.90;99.90;;;;;;4887068;29;20044;-81
2023/01/18 06:07:33;;;;;;;14.90;8.02;;;-0.80;99.90;;;;;;4888330;29;20036;-80
2023/01/18 06:09:58;;;;;;;13.50;7.00;;;-0.80;99.90;;;;;;4874575;29;20054;-80
2023/01/18 06:12:24;;;;;;;12.20;7.32;;;-0.80;99.90;;;;;;4888210;29;20127;-80
2023/01/18 06:14:50;;;;;;;13.80;6.90;;;-0.80;99.90;;;;;;4860082;29;20036;-80
2023/01/18 06:17:16;;;;;;;11.60;7.05;;;0.90;99.90;;;;;;4857217;29;20284;-80
2023/01/18 06:19:41;;;;;;;12.65;7.00;;;-0.70;99.90;;;;;;4872943;29;20040;-80
2023/01/18 06:22:07;;;;;;;14.02;7.82;;;0.10;99.90;;;;;;4888563;29;20052;-80
2023/01/18 06:24:33;;;;;;;11.32;6.53;;;-0.70;99.90;;;;;;4888209;29;20386;-80
2023/01/18 06:26:59;;;;;;;9.80;5.97;;;-0.70;99.90;;;;;;4890253;29;20049;-80
2023/01/18 06:29:25;;;;;;;12.00;7.90;;;-0.70;99.90;;;;;;4873021;29;20430;-80
2023/01/18 06:31:51;;;;;;;11.98;6.30;;;-0.30;99.90;;;;;;4872698;29;20076;-80
2023/01/18 06:34:17;;;;;;;11.43;5.97;;;-0.70;99.90;;;;;;4888867;29;20509;-80
2023/01/18 06:36:44;;;;;;;14.43;7.30;;;-0.80;99.90;;;;;;4890635;29;20043;-79
2023/01/18 06:39:10;;;;;;;12.25;7.03;;;-0.80;99.90;;;;;;4852012;29;20045;-80
2023/01/18 06:41:36;;;;;;;11.90;7.55;;;0.80;99.90;;;;;;4887994;29;20041;-80
2023/01/18 06:44:02;;;;;;;9.45;6.45;;;1.30;99.90;;;;;;4889522;29;20044;-80
2023/01/18 06:46:28;;;;;;;12.15;6.63;;;-1.00;99.90;;;;;;4890480;29;20132;-80
2023/01/18 06:48:53;;;;;;;11.52;6.65;;;-0.80;99.90;;;;;;4871239;29;20510;-80
2023/01/18 06:51:20;;;;;;;12.93;6.50;;;-0.20;99.90;;;;;;4888020;29;20075;-80
2023/01/18 06:53:46;;;;;;;10.25;6.55;;;-0.70;99.90;;;;;;4887608;29;20104;-80
2023/01/18 06:56:13;;;;;;;10.27;6.25;;;-0.80;99.90;;;;;;4855288;29;20570;-80
2023/01/18 06:58:39;;;;;;;11.35;7.22;;;-0.80;99.90;;;;;;4856719;29;20036;-80
2023/01/18 07:01:05;;;;;;;13.20;7.45;;;-0.80;99.90;;;;;;4888256;29;20095;-80
2023/01/18 07:03:32;;;;;;;12.45;7.07;;;0.40;99.90;;;;;;4887728;29;20041;-80
2023/01/18 07:06:00;;;;;;;10.85;6.30;;;-0.40;99.90;;;;;;4872780;29;20044;-80
2023/01/18 07:08:27;;;;;;;11.93;7.47;;;-0.60;99.90;;;;;;4872664;29;20040;-80
2023/01/18 07:10:53;;;;;;;14.45;6.80;;;-0.40;99.90;;;;;;4893678;29;20044;-80
2023/01/18 07:13:19;;;;;;;11.93;7.20;;;-0.80;99.90;;;;;;4864238;29;20098;-80
2023/01/18 07:15:50;;;;;;;12.63;7.28;;;-0.60;99.90;;;;;;4877348;29;20032;-80
2023/01/18 07:18:16;;;;;;;13.02;7.20;;;-0.30;99.90;;;;;;4893825;29;20088;-80
2023/01/18 07:20:42;;;;;;;11.63;6.05;;;1.40;99.90;;;;;;4858943;29;20493;-80
2023/01/18 07:23:07;;;;;;;11.77;6.97;;;-0.70;99.90;;;;;;4893165;29;20499;-79
2023/01/18 07:25:33;;;;;;;13.17;6.00;;;-0.30;99.90;;;;;;4892393;29;20040;-79
2023/01/18 07:27:59;;;;;;;10.05;5.93;;;-0.70;99.90;;;;;;4876379;29;20359;-80
2023/01/18 07:30:25;;;;;;;12.95;7.78;;;-0.70;99.90;;;;;;4891450;29;20123;-80
2023/01/18 07:32:52;;;;;;;12.13;6.43;;;-0.30;99.90;;;;;;4878136;29;20044;-80
2023/01/18 07:35:20;;;;;;;12.13;6.70;;;-0.60;99.90;;;;;;4875112;29;20037;-80
2023/01/18 07:37:48;;;;;;;6.40;4.35;;;-0.50;99.90;;;;;;4892841;29;20104;-80
2023/01/18 07:40:14;;;;;;;11.43;6.00;;;-0.60;99.90;;;;;;4872780;29;20051;-80
2023/01/18 07:42:40;;;;;;;13.50;6.90;;;-0.60;99.90;;;;;;4876728;29;20041;-81
2023/01/18 07:45:08;;;;;;;11.15;6.15;;;-0.60;99.90;;;;;;4891579;29;20127;-80
2023/01/18 07:47:34;;;;;;;12.35;6.78;;;-0.60;99.90;;;;;;4891894;29;20040;-80
2023/01/18 07:50:00;;;;;;;12.48;6.75;;;-0.60;99.90;;;;;;4889713;29;20052;-80
2023/01/18 07:52:26;;;;;;;13.18;6.22;;;-0.60;99.90;;;;;;4891206;29;20119;-80
2023/01/18 07:54:52;;;;;;;13.60;7.03;;;-0.60;99.90;;;;;;4871607;29;20044;-80
2023/01/18 07:57:18;;;;;;;13.57;6.53;;;0.10;99.90;;;;;;4893967;29;20549;-80
2023/01/18 07:59:44;;;;;;;16.15;6.45;;;-0.80;99.90;;;;;;4875575;29;20048;-81
2023/01/18 08:02:12;;;;;;;14.25;6.88;;;-0.10;99.90;;;;;;4860431;29;20083;-81
2023/01/18 08:04:41;;;;;;;9.73;5.28;;;-0.10;99.90;;;;;;4886951;29;20414;-81
2023/01/18 08:07:07;;;;;;;10.88;6.03;;;-0.50;99.90;;;;;;4872898;29;20036;-81
2023/01/18 08:09:33;;;;;;;9.70;5.57;;;0.90;99.90;;;;;;4861995;29;20053;-80
2023/01/18 08:11:59;;;;;;;8.43;4.95;;;-0.40;99.90;;;;;;4844940;29;20036;-80
2023/01/18 08:14:25;;;;;;;12.10;5.55;;;-0.50;99.90;;;;;;4891487;29;20036;-81
2023/01/18 08:16:51;;;;;;;11.35;5.82;;;0.60;99.90;;;;;;4873551;29;20119;-81
2023/01/18 08:19:16;;;;;;;11.18;5.85;;;-0.40;99.90;;;;;;4890987;29;20123;-80
2023/01/18 08:21:46;;;;;;;10.85;5.68;;;-0.30;99.90;;;;;;4873021;29;20513;-80
2023/01/18 08:24:12;;;;;;;9.50;5.43;;;-0.30;99.90;;;;;;4891772;29;20107;-78
2023/01/18 08:26:40;;;;;;;11.98;5.80;;;-0.30;99.90;;;;;;4892446;29;20044;-78
2023/01/18 08:29:06;;;;;;;9.50;5.57;;;-0.30;99.90;;;;;;4890325;29;20485;-79
2023/01/18 08:31:32;;;;;;;12.73;5.43;;;-0.20;99.90;;;;;;4889463;29;20111;-78
2023/01/18 08:33:57;;;;;;;10.15;5.82;;;0.50;99.90;;;;;;4870716;29;20493;-78
2023/01/18 08:36:24;;;;;;;9.60;5.50;;;-0.10;99.90;;;;;;4870279;29;20508;-79
2023/01/18 08:38:54;;;;;;;9.63;5.30;;;0.10;99.90;;;;;;4888579;29;20243;-78
2023/01/18 08:41:21;;;;;;;8.60;5.03;;;2.00;99.90;;;;;;4873275;29;20382;-78
2023/01/18 08:43:51;;;;;;;11.63;4.75;;;1.10;99.90;;;;;;4872212;29;20047;-78
2023/01/18 08:46:17;;;;;;;11.38;5.90;;;1.70;99.90;;;;;;4875944;29;20036;-78
2023/01/18 08:48:43;;;;;;;9.48;4.95;;;2.20;99.90;;;;;;4871673;29;20128;-78
2023/01/18 08:51:09;;;;;;;7.68;5.10;;;2.60;99.90;;;;;;4872248;29;20517;-77
2023/01/18 08:53:35;;;;;;;9.13;4.50;;;3.20;99.90;;;;;;4889634;29;20035;-77
2023/01/18 08:56:05;;;;;;;6.87;3.87;;;3.40;99.90;;;;;;4871673;29;20044;-78
2023/01/18 08:58:32;;;;;;;8.15;4.28;;;3.70;99.90;;;;;;4889836;29;21593;-78
2023/01/18 09:00:57;;;;;;;6.85;3.88;;;4.00;99.90;;;;;;4888079;29;20079;-79
2023/01/18 09:03:24;;;;;;;10.83;4.30;;;4.20;99.90;;;;;;4889196;29;20083;-78
2023/01/18 09:05:50;;;;;;;7.43;3.85;;;4.50;99.90;;;;;;4889948;29;20281;-78
2023/01/18 09:08:16;;;;;;;6.32;3.55;;;5.00;99.90;;;;;;4884333;29;20395;-78
2023/01/18 09:10:43;;;;;;;9.02;4.03;;;5.00;99.90;;;;;;4869036;29;20418;-78
2023/01/18 09:13:09;;;;;;;7.93;4.03;;;6.30;99.90;;;;;;4882614;29;20053;-79
2023/01/18 09:15:36;;;;;;;7.65;3.47;;;5.80;99.90;;;;;;4870167;29;20041;-79
2023/01/18 09:18:05;;;;;;;8.65;3.90;;;5.70;99.90;;;;;;4890220;29;20448;-79
2023/01/18 09:20:34;;;;;;;8.27;3.67;;;5.60;99.90;;;;;;4852527;29;20056;-79
2023/01/18 09:23:06;;;;;;;7.22;3.80;;;5.80;99.90;;;;;;4875459;29;20039;-79
2023/01/18 09:25:35;;;;;;;8.50;3.88;;;6.00;99.90;;;;;;4873055;29;20127;-79
2023/01/18 09:28:03;;;;;;;7.30;4.03;;;6.30;99.90;;;;;;4889099;29;20044;-79
2023/01/18 09:30:29;;;;;;;8.85;3.42;;;6.50;99.90;;;;;;4861273;29;20047;-79
2023/01/18 09:32:58;;;;;;;8.52;3.50;;;6.70;99.90;;;;;;4889186;29;20067;-79
2023/01/18 09:35:24;;;;;;;4.18;3.08;;;6.90;99.90;;;;;;4892077;29;20040;-79
2023/01/18 09:37:49;;;;;;;5.28;3.00;;;7.10;99.90;;;;;;4887338;29;20044;-80
2023/01/18 09:40:18;;;;;;;6.17;3.07;;;7.20;99.90;;;;;;4858101;29;20394;-80
2023/01/18 09:42:46;;;;;;;6.13;3.15;;;7.30;99.90;;;;;;4876364;29;20292;-80
2023/01/18 09:45:27;;;;;;;7.90;3.58;;;7.50;99.90;;;;;;4887818;29;20044;-80
2023/01/18 09:48:04;;;;;;;5.80;3.65;;;7.60;99.90;;;;;;4876664;29;20409;-80
2023/01/18 09:50:37;;;;;;;6.43;3.70;;;7.50;99.90;;;;;;4872271;29;20041;-79
2023/01/18 09:53:11;;;;;;;7.50;3.35;;;7.00;99.90;;;;;;4887258;29;20036;-80
2023/01/18 09:55:46;;;;;;;5.35;3.53;;;7.10;99.90;;;;;;4867724;29;20036;-80
2023/01/18 09:58:32;;;;;;;9.40;3.95;;;6.50;99.90;;;;;;4870197;29;20040;-80
2023/01/18 10:01:35;;;;;;;8.02;3.42;;;5.90;99.90;;;;;;4868774;29;20405;-79
2023/01/18 10:04:16;;;;;;;5.78;3.60;;;6.20;99.90;;;;;;4869177;29;20045;-79
2023/01/18 10:07:15;;;;;;;6.03;3.40;;;6.60;99.90;;;;;;4885723;29;20489;-80
2023/01/18 10:09:48;;;;;;;5.07;3.35;;;6.50;99.90;;;;;;4845238;29;20060;-80
2023/01/18 10:12:38;;;;;;;5.78;3.45;;;6.90;99.90;;;;;;4889170;29;20040;-80
2023/01/18 10:15:24;;;;;;;6.47;3.90;;;7.40;99.90;;;;;;4865764;29;20044;-80
2023/01/18 10:17:55;;;;;;;6.30;3.75;;;7.50;99.90;;;;;;4884881;29;20497;-80
2023/01/18 10:20:44;;;;;;;5.82;3.67;;;7.70;99.90;;;;;;4866076;29;20055;-80
2023/01/18 10:23:34;;;;;;;7.22;3.72;;;7.90;99.90;;;;;;4883851;29;20073;-80
2023/01/18 10:26:19;;;;;;;7.93;3.75;;;8.20;99.90;;;;;;4880804;29;20067;-80
2023/01/18 10:28:52;;;;;;;7.18;3.80;;;8.10;99.90;;;;;;4884639;29;20044;-80
2023/01/18 10:31:45;;;;;;;5.72;3.10;;;8.50;99.90;;;;;;4883974;29;20399;-80
2023/01/18 10:34:20;;;;;;;5.95;3.38;;;8.80;99.90;;;;;;4880936;29;20456;-80
2023/01/18 10:36:51;;;;;;;8.25;3.83;;;8.30;99.90;;;;;;4868304;29;20036;-80
2023/01/18 10:39:34;;;;;;;5.70;2.92;;;8.40;99.90;;;;;;4884147;29;20070;-80
2023/01/18 10:42:02;;;;;;;6.68;3.80;;;8.60;99.90;;;;;;4871066;29;20032;-80
2023/01/18 10:44:28;;;;;;;7.47;4.00;;;8.70;99.90;;;;;;4874758;29;20082;-80
2023/01/18 10:46:59;;;;;;;6.38;3.65;;;8.80;99.90;;;;;;4889032;29;20458;-79
2023/01/18 10:49:32;;;;;;;6.85;3.42;;;9.10;99.90;;;;;;4871506;29;20540;-79
2023/01/18 10:52:19;;;;;;;4.45;3.08;;;9.30;99.90;;;;;;4875084;29;20045;-79
2023/01/18 10:54:50;;;;;;;9.10;3.63;;;9.80;99.90;;;;;;4887480;29;20096;-79
2023/01/18 10:57:27;;;;;;;9.40;4.05;;;9.90;99.90;;;;;;4887187;29;20412;-79
2023/01/18 10:59:55;;;;;;;5.68;3.67;;;9.70;99.90;;;;;;4889412;29;20397;-79
2023/01/18 11:02:36;;;;;;;4.97;3.20;;;9.80;99.90;;;;;;4888087;29;20046;-79
2023/01/18 11:05:39;;;;;;;5.53;3.03;;;10.30;99.90;;;;;;4867263;29;20044;-79
2023/01/18 11:08:31;;;;;;;6.82;3.15;;;10.10;99.90;;;;;;4886380;29;20509;-78
2023/01/18 11:11:21;;;;;;;7.00;3.45;;;10.50;99.90;;;;;;4890174;29;20417;-79
2023/01/18 11:13:48;;;;;;;6.45;3.50;;;10.40;99.90;;;;;;4879978;29;20131;-78
2023/01/18 11:16:22;;;;;;;4.82;2.92;;;10.60;99.90;;;;;;4888166;29;20048;-79
2023/01/18 11:19:14;;;;;;;6.68;3.53;;;10.80;99.90;;;;;;4892631;29;20072;-78
2023/01/18 11:21:42;;;;;;;5.60;3.78;;;10.50;99.90;;;;;;4891805;29;20574;-79
2023/01/18 11:24:32;;;;;;;5.60;3.80;;;10.30;99.90;;;;;;4873629;29;20051;-79
2023/01/18 11:26:57;;;;;;;6.30;2.88;;;10.70;99.90;;;;;;4893680;29;20134;-78
2023/01/18 11:29:40;;;;;;;5.50;3.53;;;10.50;99.90;;;;;;4896397;29;20135;-79
2023/01/18 11:32:25;;;;;;;6.28;3.42;;;10.50;99.90;;;;;;4875042;29;20051;-79
2023/01/18 11:34:54;;;;;;;6.80;3.38;;;10.50;99.90;;;;;;4887738;29;20068;-79
2023/01/18 11:37:37;;;;;;;8.07;3.13;;;10.50;99.90;;;;;;4887217;29;20056;-79
2023/01/18 11:40:18;;;;;;;5.10;3.33;;;10.40;99.90;;;;;;4888631;29;20059;-79
2023/01/18 11:42:44;;;;;;;4.88;3.33;;;10.30;99.90;;;;;;4891208;29;20497;-79
2023/01/18 11:45:28;;;;;;;5.80;3.03;;;10.20;99.90;;;;;;4859364;29;20040;-79
2023/01/18 11:48:03;;;;;;;5.45;2.03;;;10.40;99.90;;;;;;4885961;29;20051;-77
2023/01/18 11:50:52;;;;;;;5.82;3.10;;;11.00;99.90;;;;;;4865210;29;20053;-77
2023/01/18 11:53:53;;;;;;;3.63;2.50;;;10.70;99.90;;;;;;4876067;29;20040;-77
2023/01/18 11:56:41;;;;;;;8.80;3.10;;;10.90;99.90;;;;;;4886690;29;20088;-78
2023/01/18 11:59:29;;;;;;;5.20;2.92;;;11.00;99.90;;;;;;4888131;29;20043;-77
2023/01/18 12:02:26;;;;;;;7.28;3.55;;;10.90;99.90;;;;;;4873170;29;20123;-78
2023/01/18 12:05:10;;;;;;;5.80;3.15;;;11.10;99.90;;;;;;4872405;29;20048;-76
2023/01/18 12:07:49;;;;;;;4.45;3.03;;;11.40;99.90;;;;;;4888156;29;20119;-77
2023/01/18 12:10:24;;;;;;;4.35;2.60;;;11.40;99.90;;;;;;4889440;29;20486;-78
2023/01/18 12:13:28;;;;;;;6.72;3.47;;;11.30;99.90;;;;;;4887780;29;20187;-77
2023/01/18 12:16:07;;;;;;;6.30;3.25;;;11.20;99.90;;;;;;4892289;29;20072;-77
2023/01/18 12:18:56;;;;;;;4.93;2.47;;;11.20;99.90;;;;;;4889722;29;20550;-77
2023/01/18 12:22:11;;;;;;;7.20;2.78;;;11.80;99.90;;;;;;4888724;29;20048;-77
2023/01/18 12:25:17;;;;;;;4.25;2.88;;;11.90;99.90;;;;;;4805551;29;20046;-76
2023/01/18 12:28:06;;;;;;;5.05;3.25;;;11.70;99.90;;;;;;4820324;29;20077;-77
2023/01/18 12:30:57;;;;;;;6.40;2.90;;;10.90;99.90;;;;;;4889739;29;20060;-76
2023/01/18 12:33:42;;;;;;;6.05;3.10;;;10.80;99.90;;;;;;4870967;29;20035;-77
2023/01/18 12:36:29;;;;;;;4.32;2.60;;;11.00;99.90;;;;;;4892156;29;20036;-77
2023/01/18 12:38:56;;;;;;;8.00;3.03;;;11.40;99.90;;;;;;4869719;29;21078;-77
2023/01/18 12:41:43;;;;;;;4.82;3.20;;;11.90;99.90;;;;;;4881833;29;20044;-77
2023/01/18 12:44:15;;;;;;;5.10;2.97;;;12.00;99.90;;;;;;4880546;29;20129;-77
2023/01/18 12:47:15;;;;;;;5.93;2.58;;;12.30;99.90;;;;;;4886903;29;20056;-77
2023/01/18 12:49:46;;;;;;;4.88;3.00;;;11.90;99.90;;;;;;4877990;29;20119;-77
2023/01/18 12:52:15;;;;;;;5.63;2.75;;;12.20;99.90;;;;;;4889421;29;20094;-78
2023/01/18 12:54:46;;;;;;;4.95;2.53;;;12.10;99.90;;;;;;4874168;29;20037;-78
2023/01/18 12:57:13;;;;;;;7.18;2.92;;;12.40;99.90;;;;;;4887079;29;20071;-78
2023/01/18 12:59:39;;;;;;;5.38;2.60;;;12.30;99.90;;;;;;4882887;29;20195;-78
2023/01/18 13:02:32;;;;;;;5.53;2.87;;;12.00;99.90;;;;;;4891302;29;20079;-78
2023/01/18 13:05:01;;;;;;;7.20;2.70;;;11.20;99.90;;;;;;4888775;29;20645;-78
2023/01/18 13:07:33;;;;;;;4.00;2.22;;;10.30;99.90;;;;;;4888100;29;20176;-78
2023/01/18 13:10:00;;;;;;;5.07;2.53;;;9.70;99.90;;;;;;4875158;29;20063;-78
2023/01/18 13:12:26;;;;;;;6.75;2.60;;;9.00;99.90;;;;;;4876387;29;20037;-78
2023/01/18 13:15:12;;;;;;;8.77;3.03;;;8.60;99.90;;;;;;4891973;29;20043;-78
2023/01/18 13:18:04;;;;;;;7.57;2.80;;;8.10;99.90;;;;;;4887939;29;20437;-78
2023/01/18 13:21:08;;;;;;;5.30;2.75;;;7.70;99.90;;;;;;4881141;29;20059;-79
2023/01/18 13:23:58;;;;;;;5.78;2.97;;;7.40;99.90;;;;;;4872422;29;20059;-79
2023/01/18 13:26:30;;;;;;;7.55;3.15;;;7.30;99.90;;;;;;4888788;29;20051;-79
2023/01/18 13:29:21;;;;;;;5.03;2.63;;;7.10;99.90;;;;;;4879321;29;20048;-79
2023/01/18 13:31:47;;;;;;;4.57;2.95;;;7.00;99.90;;;;;;4867369;29;20092;-75
2023/01/18 13:34:35;;;;;;;5.63;2.58;;;6.80;99.90;;;;;;4886714;29;20119;-78
2023/01/18 13:37:05;;;;;;;5.20;2.58;;;6.90;99.90;;;;;;4882757;29;20066;-77
2023/01/18 13:39:32;;;;;;;6.55;3.47;;;6.90;99.90;;;;;;4888645;29;20059;-78
2023/01/18 13:42:01;;;;;;;5.38;2.60;;;6.80;99.90;;;;;;4859929;29;20044;-77
2023/01/18 13:44:50;;;;;;;9.02;4.60;;;6.60;99.90;;;;;;4885869;29;20111;-78
2023/01/18 13:47:55;;;;;;;5.00;2.30;;;6.60;99.90;;;;;;4886554;29;20051;-78
2023/01/18 13:50:30;;;;;;;6.47;2.60;;;6.60;99.90;;;;;;4861053;29;20108;-78
2023/01/18 13:53:14;;;;;;;8.55;2.70;;;6.60;99.90;;;;;;4882134;29;20135;-78